CA-0398 weather

CLOSED Vanscoy Airport
Saskatchewan, Canada

Public forecast

Using degrees Celsius for public forecast. Weather courtesy of forecast.io.

Closest aviation weather report (METAR) to Vanscoy Airport

Closest report is Saskatoon John G. Diefenbaker International Airport, 15.4 nm (28.5 km) NE. Retrieved 2020/06/03 14:00 UTC (46 minutes ago):

CYXE 031400Z 25018G24KT 15SM FEW060 FEW130 SCT180 17/07 A2956 RMK SC1AC1AC1 SLP014 DENSITY ALT 2800FT

Closest aviation forecast (TAF) to Vanscoy Airport

Closest forecast is Saskatoon John G. Diefenbaker International Airport, 15.4 nm (28.5 km) NE. Retrieved 2020/06/03 12:57 UTC (2 hours ago):

TAF CYXE 031153Z 0312/0412 16008KT P6SM SCT100 OVC150 BECMG 0312/0314 22015G30KT FM031500 28020G35KT P6SM FEW050 BKN080 FM031800 28025G35KT P6SM BKN080 BECMG 0402/0404 29018G28KT FM040600 28015G25KT P6SM BKN030 RMK NXT FCST BY 031800Z